Time;durP1;ratioP1;P1;durP2;ratioP2;P2;SDS_P1;SDS_P2;PMS_P1;PMS_P2;Temp;Humidity;BMP_temperature;BMP_pressure;BME280_temperature;BME280_humidity;BME280_pressure;Samples;Min_cycle;Max_cycle;Signal;HPM_P1;HPM_P2
2022/06/18 17:42:43;;;;;;;24.33;5.18;;;36.40;31.80;;;;;;5055768;28;20434;-73
2022/06/18 17:45:13;;;;;;;28.45;4.93;;;35.40;33.30;;;;;;5038186;28;20029;-74
2022/06/18 17:47:39;;;;;;;26.95;5.45;;;35.00;34.00;;;;;;5042050;28;20039;-75
2022/06/18 17:50:06;;;;;;;21.33;5.50;;;34.60;33.80;;;;;;5043477;28;20034;-75
2022/06/18 17:52:33;;;;;;;19.10;6.05;;;34.20;34.20;;;;;;5042134;28;20059;-73
2022/06/18 17:54:59;;;;;;;22.30;6.05;;;33.70;34.90;;;;;;5045189;28;20017;-73
2022/06/18 17:57:25;;;;;;;19.83;5.72;;;33.40;35.40;;;;;;5037793;28;20762;-74
2022/06/18 17:59:51;;;;;;;25.52;6.20;;;33.00;35.70;;;;;;5038111;28;20037;-76
2022/06/18 18:02:24;;;;;;;25.33;5.88;;;32.60;36.20;;;;;;5040119;28;20137;-77
2022/06/18 18:04:51;;;;;;;20.85;5.60;;;32.30;36.00;;;;;;5033305;28;20022;-76
2022/06/18 18:07:18;;;;;;;22.98;5.53;;;32.00;36.00;;;;;;5035947;28;20041;-76
2022/06/18 18:09:46;;;;;;;27.77;5.70;;;31.70;36.40;;;;;;5043905;28;20128;-76
2022/06/18 18:12:15;;;;;;;19.55;5.25;;;31.50;36.80;;;;;;5055692;28;20041;-76
2022/06/18 18:14:45;;;;;;;23.50;5.00;;;31.30;36.90;;;;;;5039849;28;20067;-74
2022/06/18 18:17:12;;;;;;;21.58;5.18;;;31.00;37.10;;;;;;5038694;28;20057;-75
2022/06/18 18:19:38;;;;;;;22.52;5.00;;;30.90;37.40;;;;;;5040846;28;20037;-78
2022/06/18 18:22:05;;;;;;;24.48;4.82;;;30.70;37.50;;;;;;5049695;28;20037;-80
2022/06/18 18:24:31;;;;;;;21.63;4.53;;;30.70;37.60;;;;;;5050367;28;20025;-77
2022/06/18 18:27:01;;;;;;;18.33;4.60;;;30.50;37.40;;;;;;5046238;28;20047;-78
2022/06/18 18:29:27;;;;;;;21.83;4.82;;;30.50;37.70;;;;;;5048658;28;20048;-78
2022/06/18 18:31:58;;;;;;;24.67;4.88;;;30.40;37.80;;;;;;5046450;28;20090;-78
2022/06/18 18:34:25;;;;;;;22.48;4.60;;;30.40;37.60;;;;;;5045997;28;20029;-76
2022/06/18 18:36:50;;;;;;;22.15;4.40;;;30.40;37.40;;;;;;5045645;28;20033;-75
2022/06/18 18:39:16;;;;;;;20.27;4.68;;;30.30;37.40;;;;;;5047707;28;20024;-76
2022/06/18 18:41:42;;;;;;;21.05;4.72;;;30.20;37.30;;;;;;5043234;28;20457;-76
2022/06/18 18:44:08;;;;;;;19.85;4.55;;;30.10;37.20;;;;;;5044948;28;20048;-75
2022/06/18 18:46:35;;;;;;;27.20;4.20;;;30.10;37.20;;;;;;5042185;28;20439;-75
2022/06/18 18:49:01;;;;;;;27.67;4.70;;;30.00;37.00;;;;;;5039751;28;20021;-75
2022/06/18 18:51:27;;;;;;;23.63;4.75;;;29.80;37.00;;;;;;5041658;28;20140;-75
2022/06/18 18:53:52;;;;;;;24.98;4.80;;;29.70;37.20;;;;;;5030880;28;20108;-77
2022/06/18 18:56:19;;;;;;;25.45;4.90;;;29.60;37.40;;;;;;5032131;28;20044;-77
2022/06/18 18:58:45;;;;;;;22.13;4.65;;;29.50;37.60;;;;;;5032860;28;20021;-77
2022/06/18 19:01:11;;;;;;;26.67;4.78;;;29.40;38.10;;;;;;5034179;28;20088;-76
2022/06/18 19:03:37;;;;;;;29.23;4.90;;;29.40;38.30;;;;;;5035779;28;20025;-77
2022/06/18 19:06:03;;;;;;;21.92;5.07;;;29.30;38.30;;;;;;5038055;28;20114;-77
2022/06/18 19:08:29;;;;;;;21.38;5.25;;;29.20;38.60;;;;;;5031104;28;20032;-77
2022/06/18 19:10:56;;;;;;;23.88;5.65;;;29.20;38.60;;;;;;5031680;28;20037;-77
2022/06/18 19:13:22;;;;;;;20.15;5.32;;;29.20;38.80;;;;;;5030322;28;20072;-77
2022/06/18 19:15:50;;;;;;;26.85;5.25;;;29.10;38.90;;;;;;5030269;28;20037;-77
2022/06/18 19:18:19;;;;;;;25.13;5.55;;;29.00;39.20;;;;;;5031100;28;20076;-77
2022/06/18 19:20:46;;;;;;;21.47;5.80;;;28.90;39.50;;;;;;5030838;28;20453;-78
2022/06/18 19:23:12;;;;;;;22.00;5.68;;;28.80;39.50;;;;;;5031331;28;20045;-77
2022/06/18 19:25:41;;;;;;;16.45;4.93;;;28.70;39.50;;;;;;5029868;28;20485;-76
2022/06/18 19:28:16;;;;;;;25.25;5.68;;;28.60;39.80;;;;;;5029894;28;20369;-76
2022/06/18 19:30:42;;;;;;;25.55;5.30;;;28.50;40.00;;;;;;5027940;28;20427;-75
2022/06/18 19:33:08;;;;;;;19.67;5.07;;;28.40;40.30;;;;;;5028194;28;20566;-74
2022/06/18 19:35:34;;;;;;;21.80;5.30;;;28.30;40.50;;;;;;5030594;28;20033;-74
2022/06/18 19:38:01;;;;;;;26.35;5.32;;;28.20;40.70;;;;;;5030418;28;20034;-73
2022/06/18 19:40:28;;;;;;;25.00;5.32;;;28.10;40.80;;;;;;5027590;28;20024;-74
2022/06/18 19:42:55;;;;;;;25.50;5.30;;;28.10;41.10;;;;;;5027276;28;20485;-79
2022/06/18 19:45:21;;;;;;;22.42;5.47;;;28.10;41.60;;;;;;5026367;28;20028;-73
2022/06/18 19:47:47;;;;;;;28.63;6.15;;;28.00;41.80;;;;;;5034379;28;20507;-75
2022/06/18 19:50:14;;;;;;;23.30;5.38;;;27.90;42.10;;;;;;5034532;28;20061;-75
2022/06/18 19:52:40;;;;;;;24.20;5.40;;;27.80;42.40;;;;;;5029868;28;20021;-75
2022/06/18 19:55:13;;;;;;;21.02;5.32;;;27.70;42.50;;;;;;5025234;28;20052;-75
2022/06/18 19:57:40;;;;;;;22.20;5.53;;;27.60;42.80;;;;;;5028712;28;20095;-75
2022/06/18 20:00:07;;;;;;;31.90;5.47;;;27.50;43.40;;;;;;5027296;28;20496;-73
2022/06/18 20:02:33;;;;;;;26.95;5.32;;;27.50;43.40;;;;;;5030890;28;20088;-75
2022/06/18 20:04:58;;;;;;;19.02;4.55;;;27.40;43.50;;;;;;5027593;28;20065;-72
2022/06/18 20:07:25;;;;;;;29.35;5.50;;;27.40;43.80;;;;;;5028828;28;20107;-73
2022/06/18 20:09:51;;;;;;;19.08;4.38;;;27.30;43.60;;;;;;5027520;28;20112;-72
2022/06/18 20:12:19;;;;;;;24.48;4.38;;;27.30;43.40;;;;;;5026225;28;20104;-72
2022/06/18 20:14:46;;;;;;;23.70;4.47;;;27.20;43.30;;;;;;5026199;28;20025;-73
2022/06/18 20:17:12;;;;;;;23.88;4.53;;;27.20;43.20;;;;;;5028415;28;20031;-73
2022/06/18 20:19:37;;;;;;;17.60;3.97;;;27.10;43.20;;;;;;5023501;28;20026;-74
2022/06/18 20:22:04;;;;;;;15.13;3.65;;;27.10;44.00;;;;;;5024781;28;20064;-74
2022/06/18 20:24:30;;;;;;;21.25;3.75;;;27.00;42.90;;;;;;5028029;28;20405;-75
2022/06/18 20:26:55;;;;;;;22.75;3.75;;;26.90;43.60;;;;;;5028827;28;20043;-74
2022/06/18 20:29:21;;;;;;;17.85;3.30;;;26.70;43.90;;;;;;5030684;28;20038;-76
2022/06/18 20:31:47;;;;;;;19.15;3.85;;;26.60;44.40;;;;;;5025838;28;20025;-74
2022/06/18 20:34:14;;;;;;;13.57;3.38;;;26.60;44.80;;;;;;5029743;28;20043;-73
2022/06/18 20:36:39;;;;;;;24.50;3.50;;;26.50;45.20;;;;;;5028865;28;20031;-74
2022/06/18 20:39:06;;;;;;;17.45;3.20;;;26.40;46.10;;;;;;5033630;28;20033;-74
2022/06/18 20:41:32;;;;;;;22.92;3.22;;;26.40;46.60;;;;;;5029363;28;20060;-73
2022/06/18 20:44:00;;;;;;;11.68;3.00;;;26.30;47.30;;;;;;5029621;28;20033;-74
2022/06/18 20:46:29;;;;;;;14.02;2.90;;;26.20;47.50;;;;;;5030071;28;20120;-74
2022/06/18 20:48:56;;;;;;;15.13;3.08;;;26.20;48.10;;;;;;5032430;28;20026;-74
2022/06/18 20:51:38;;;;;;;43.53;4.22;;;26.10;48.20;;;;;;5031222;28;20026;-77
2022/06/18 20:59:36;;;;;;;14.18;3.53;;;25.90;52.30;;;;;;5029849;28;20049;-74
2022/06/18 21:02:03;;;;;;;16.67;3.83;;;25.70;53.30;;;;;;5029257;28;20036;-74
2022/06/18 21:04:29;;;;;;;16.83;3.50;;;25.60;53.60;;;;;;5031190;28;20024;-74
2022/06/18 21:06:54;;;;;;;14.30;3.38;;;25.50;53.80;;;;;;5027988;28;20400;-74
2022/06/18 21:09:20;;;;;;;14.02;3.30;;;25.40;53.60;;;;;;5030227;28;20020;-73
2022/06/18 21:11:46;;;;;;;13.63;3.50;;;25.30;53.90;;;;;;5032999;28;20024;-74
2022/06/18 21:14:11;;;;;;;13.43;3.63;;;25.30;55.20;;;;;;5030729;28;20018;-75
2022/06/18 21:16:37;;;;;;;13.07;3.83;;;25.20;54.60;;;;;;5028128;28;20468;-74
2022/06/18 21:19:04;;;;;;;13.27;3.85;;;25.10;54.60;;;;;;5026225;28;20037;-73
2022/06/18 21:21:30;;;;;;;16.00;4.47;;;25.00;55.00;;;;;;5029088;28;20060;-74
2022/06/18 21:23:55;;;;;;;16.33;4.05;;;24.90;55.70;;;;;;5029238;28;20026;-74
2022/06/18 21:26:22;;;;;;;17.73;4.50;;;24.70;56.20;;;;;;5026341;28;20036;-74
2022/06/18 21:28:48;;;;;;;14.95;4.53;;;24.40;57.10;;;;;;5025257;28;20535;-74
2022/06/18 21:37:01;;;;;;;17.88;5.15;;;23.90;59.20;;;;;;5028291;28;20306;-75
2022/06/18 21:39:32;;;;;;;21.45;5.60;;;23.80;59.80;;;;;;5025623;28;20037;-75
2022/06/18 21:41:59;;;;;;;15.60;6.25;;;23.60;60.00;;;;;;5028526;28;20049;-75
2022/06/18 21:44:26;;;;;;;18.75;6.32;;;23.60;60.30;;;;;;5026593;28;20037;-76
2022/06/18 21:46:55;;;;;;;22.88;6.85;;;23.50;60.50;;;;;;5027910;28;20044;-76
2022/06/18 21:49:26;;;;;;;16.20;6.80;;;23.50;60.60;;;;;;5026230;28;20068;-75
2022/06/18 21:51:52;;;;;;;23.75;6.90;;;23.50;60.80;;;;;;5025951;28;20072;-76
2022/06/18 21:54:18;;;;;;;16.73;6.18;;;23.30;61.10;;;;;;5026239;28;20547;-76
2022/06/18 21:56:50;;;;;;;23.85;7.00;;;23.40;60.80;;;;;;5031055;28;20065;-76
2022/06/18 21:59:18;;;;;;;22.23;7.22;;;23.40;60.90;;;;;;5028105;28;20052;-75
2022/06/18 22:01:44;;;;;;;17.73;6.78;;;23.40;60.90;;;;;;5026933;28;20127;-75
2022/06/18 22:04:09;;;;;;;25.95;6.60;;;23.40;60.90;;;;;;5025627;28;20112;-75
2022/06/18 22:06:35;;;;;;;17.35;6.22;;;23.40;61.80;;;;;;5027991;28;20041;-75
2022/06/18 22:09:01;;;;;;;16.77;6.55;;;23.40;60.80;;;;;;5032452;28;20030;-75
2022/06/18 22:11:26;;;;;;;19.38;6.72;;;23.30;61.00;;;;;;5030888;28;20040;-76
2022/06/18 22:19:20;;;;;;;19.05;5.90;;;23.20;61.40;;;;;;5019368;28;20388;-75
2022/06/18 22:21:46;;;;;;;13.20;6.18;;;23.10;61.70;;;;;;5025638;28;20038;-76
2022/06/18 22:24:13;;;;;;;14.55;5.68;;;23.10;61.90;;;;;;5028884;28;20128;-76
2022/06/18 22:26:39;;;;;;;22.30;5.97;;;23.10;62.80;;;;;;5024724;28;20025;-75
2022/06/18 22:29:05;;;;;;;20.27;5.88;;;23.00;62.00;;;;;;5031154;28;20095;-75
2022/06/18 22:31:32;;;;;;;21.85;6.07;;;23.00;62.00;;;;;;5030372;28;20026;-74
2022/06/18 22:33:58;;;;;;;19.05;5.28;;;23.00;61.90;;;;;;5030725;28;20095;-74
2022/06/18 22:36:24;;;;;;;16.50;5.28;;;23.00;61.60;;;;;;5029484;28;20493;-75
2022/06/18 22:38:54;;;;;;;15.75;5.13;;;23.00;61.30;;;;;;5028493;28;20029;-74
2022/06/18 22:41:35;;;;;;;20.60;5.22;;;22.90;61.20;;;;;;5032094;28;20145;-75
2022/06/18 22:44:04;;;;;;;17.48;5.10;;;22.90;61.00;;;;;;5032639;28;20033;-75
2022/06/18 22:46:34;;;;;;;17.27;5.18;;;22.90;61.10;;;;;;5033757;28;20140;-75
2022/06/18 22:49:01;;;;;;;16.63;4.55;;;22.90;61.20;;;;;;5028543;28;20642;-75
2022/06/18 22:51:27;;;;;;;18.52;5.35;;;22.80;62.10;;;;;;5031734;28;20017;-75
2022/06/18 22:53:54;;;;;;;20.90;4.93;;;22.80;61.00;;;;;;5031583;28;20037;-76
2022/06/18 22:56:20;;;;;;;15.50;4.93;;;22.80;60.90;;;;;;5032370;28;20021;-76
2022/06/18 22:58:46;;;;;;;16.80;5.15;;;22.80;61.00;;;;;;5031447;28;20032;-75
2022/06/18 23:01:12;;;;;;;17.35;4.90;;;22.90;60.80;;;;;;5031732;28;20033;-76
2022/06/18 23:03:39;;;;;;;20.48;4.95;;;22.90;60.40;;;;;;5034098;28;20112;-75
2022/06/18 23:06:10;;;;;;;14.98;4.75;;;23.00;60.30;;;;;;5031573;28;20480;-75
2022/06/18 23:08:39;;;;;;;19.13;4.78;;;23.00;61.20;;;;;;5033474;28;20446;-75
2022/06/18 23:14:09;;;;;;;18.23;4.75;;;23.20;59.70;;;;;;5045326;28;20136;-75
2022/06/18 23:16:34;;;;;;;13.52;4.63;;;23.20;59.30;;;;;;5045709;28;20071;-76
2022/06/18 23:19:01;;;;;;;17.30;4.57;;;23.30;59.10;;;;;;5043860;28;20060;-75
2022/06/18 23:21:29;;;;;;;21.42;4.97;;;23.30;58.80;;;;;;5045005;28;20045;-75
2022/06/18 23:23:55;;;;;;;17.27;4.85;;;23.30;58.40;;;;;;5043167;28;20044;-76
2022/06/18 23:26:21;;;;;;;17.13;4.45;;;23.30;58.10;;;;;;5044241;28;20029;-75
2022/06/18 23:28:46;;;;;;;17.83;4.75;;;23.30;58.10;;;;;;5040916;28;20035;-75
2022/06/18 23:31:12;;;;;;;14.30;4.50;;;23.30;58.00;;;;;;5044464;28;20044;-75
2022/06/18 23:33:39;;;;;;;17.70;4.70;;;23.30;57.70;;;;;;5041453;28;20032;-75
2022/06/18 23:36:06;;;;;;;18.33;4.55;;;23.30;57.60;;;;;;5044594;28;20041;-75
2022/06/18 23:38:34;;;;;;;15.18;4.68;;;23.30;57.40;;;;;;5043785;28;20018;-76
2022/06/18 23:41:00;;;;;;;14.32;4.25;;;23.30;57.30;;;;;;5042985;28;20089;-75
2022/06/18 23:43:30;;;;;;;16.13;4.50;;;23.30;57.10;;;;;;5046018;28;20045;-75
2022/06/18 23:45:58;;;;;;;19.77;4.85;;;23.40;57.30;;;;;;5042524;28;20025;-75
2022/06/18 23:48:25;;;;;;;15.93;4.75;;;23.40;57.30;;;;;;5047994;28;20511;-76
2022/06/18 23:50:50;;;;;;;16.13;4.47;;;23.40;57.30;;;;;;5031871;28;20042;-75
2022/06/18 23:53:16;;;;;;;16.33;4.60;;;23.50;57.10;;;;;;5033196;28;20070;-75
2022/06/18 23:55:49;;;;;;;20.33;4.40;;;23.60;56.90;;;;;;5029302;28;20477;-76
2022/06/18 23:58:15;;;;;;;15.18;4.43;;;23.60;56.70;;;;;;5030967;28;20036;-75
